sensor_id;sensor_type;location;lat;lon;timestamp;temperature;humidity
25983;DHT22;13773;48.868;10.730;2023-05-07T00:00:04;11.20;99.90
25983;DHT22;13773;48.868;10.730;2023-05-07T00:02:33;11.20;99.90
25983;DHT22;13773;48.868;10.730;2023-05-07T00:04:59;11.20;99.90
25983;DHT22;13773;48.868;10.730;2023-05-07T00:07:24;11.30;99.90
25983;DHT22;13773;48.868;10.730;2023-05-07T00:09:50;11.20;99.90
25983;DHT22;13773;48.868;10.730;2023-05-07T00:12:16;11.20;99.90
25983;DHT22;13773;48.868;10.730;2023-05-07T00:14:41;11.20;99.90
25983;DHT22;13773;48.868;10.730;2023-05-07T00:17:07;11.10;99.90
25983;DHT22;13773;48.868;10.730;2023-05-07T00:19:33;11.10;99.90
25983;DHT22;13773;48.868;10.730;2023-05-07T00:21:58;11.00;99.90
25983;DHT22;13773;48.868;10.730;2023-05-07T00:24:24;11.00;99.90
25983;DHT22;13773;48.868;10.730;2023-05-07T00:26:50;11.00;99.90
25983;DHT22;13773;48.868;10.730;2023-05-07T00:29:16;11.00;99.90
25983;DHT22;13773;48.868;10.730;2023-05-07T00:31:42;10.90;99.90
25983;DHT22;13773;48.868;10.730;2023-05-07T00:34:07;10.80;99.90
25983;DHT22;13773;48.868;10.730;2023-05-07T00:36:33;10.80;99.90
25983;DHT22;13773;48.868;10.730;2023-05-07T00:38:59;10.60;99.90
25983;DHT22;13773;48.868;10.730;2023-05-07T00:41:27;10.50;99.90
25983;DHT22;13773;48.868;10.730;2023-05-07T00:43:52;10.40;99.90
25983;DHT22;13773;48.868;10.730;2023-05-07T00:46:20;10.40;99.90
25983;DHT22;13773;48.868;10.730;2023-05-07T00:48:47;10.40;99.90
25983;DHT22;13773;48.868;10.730;2023-05-07T00:51:13;10.40;99.90
25983;DHT22;13773;48.868;10.730;2023-05-07T00:53:39;10.50;99.90
25983;DHT22;13773;48.868;10.730;2023-05-07T00:56:06;10.60;99.90
25983;DHT22;13773;48.868;10.730;2023-05-07T00:58:32;10.60;99.90
25983;DHT22;13773;48.868;10.730;2023-05-07T01:00:59;10.60;99.90
25983;DHT22;13773;48.868;10.730;2023-05-07T01:03:25;10.60;99.90
25983;DHT22;13773;48.868;10.730;2023-05-07T01:05:52;10.60;99.90
25983;DHT22;13773;48.868;10.730;2023-05-07T01:08:19;10.60;99.90
25983;DHT22;13773;48.868;10.730;2023-05-07T01:10:46;10.60;99.90
25983;DHT22;13773;48.868;10.730;2023-05-07T01:13:12;10.60;99.90
25983;DHT22;13773;48.868;10.730;2023-05-07T01:15:39;10.60;99.90
25983;DHT22;13773;48.868;10.730;2023-05-07T01:18:07;10.50;99.90
25983;DHT22;13773;48.868;10.730;2023-05-07T01:20:33;10.50;99.90
25983;DHT22;13773;48.868;10.730;2023-05-07T01:23:00;10.50;99.90
25983;DHT22;13773;48.868;10.730;2023-05-07T01:25:27;10.40;99.90
25983;DHT22;13773;48.868;10.730;2023-05-07T01:27:53;10.30;99.90
25983;DHT22;13773;48.868;10.730;2023-05-07T01:30:20;10.40;99.90
25983;DHT22;13773;48.868;10.730;2023-05-07T01:32:53;10.50;99.90
25983;DHT22;13773;48.868;10.730;2023-05-07T01:35:25;10.50;99.90
25983;DHT22;13773;48.868;10.730;2023-05-07T01:37:52;10.50;99.90
25983;DHT22;13773;48.868;10.730;2023-05-07T01:40:18;10.90;99.90
25983;DHT22;13773;48.868;10.730;2023-05-07T01:42:45;11.10;99.90
25983;DHT22;13773;48.868;10.730;2023-05-07T01:45:11;11.10;99.90
25983;DHT22;13773;48.868;10.730;2023-05-07T01:47:37;11.30;99.90
25983;DHT22;13773;48.868;10.730;2023-05-07T01:50:07;11.30;99.90
25983;DHT22;13773;48.868;10.730;2023-05-07T01:52:39;11.20;99.90
25983;DHT22;13773;48.868;10.730;2023-05-07T01:55:05;11.50;99.90
25983;DHT22;13773;48.868;10.730;2023-05-07T01:57:31;11.20;99.90
25983;DHT22;13773;48.868;10.730;2023-05-07T01:59:57;11.00;99.90
25983;DHT22;13773;48.868;10.730;2023-05-07T02:02:23;11.10;99.90
25983;DHT22;13773;48.868;10.730;2023-05-07T02:04:48;11.10;99.90
25983;DHT22;13773;48.868;10.730;2023-05-07T02:07:14;11.00;99.90
25983;DHT22;13773;48.868;10.730;2023-05-07T02:09:40;11.10;99.90
25983;DHT22;13773;48.868;10.730;2023-05-07T02:12:05;11.10;99.90
25983;DHT22;13773;48.868;10.730;2023-05-07T02:14:31;10.90;99.90
25983;DHT22;13773;48.868;10.730;2023-05-07T02:16:57;10.90;99.90
25983;DHT22;13773;48.868;10.730;2023-05-07T02:19:22;11.20;99.90
25983;DHT22;13773;48.868;10.730;2023-05-07T02:21:48;11.10;99.90
25983;DHT22;13773;48.868;10.730;2023-05-07T02:24:14;11.00;99.90
25983;DHT22;13773;48.868;10.730;2023-05-07T02:26:40;11.00;99.90
25983;DHT22;13773;48.868;10.730;2023-05-07T02:29:06;10.90;99.90
25983;DHT22;13773;48.868;10.730;2023-05-07T02:31:32;10.90;99.90
25983;DHT22;13773;48.868;10.730;2023-05-07T02:33:59;10.80;99.90
25983;DHT22;13773;48.868;10.730;2023-05-07T02:36:25;11.10;99.90
25983;DHT22;13773;48.868;10.730;2023-05-07T02:38:52;11.20;99.90
25983;DHT22;13773;48.868;10.730;2023-05-07T02:41:18;10.80;99.90
25983;DHT22;13773;48.868;10.730;2023-05-07T02:43:43;10.80;99.90
25983;DHT22;13773;48.868;10.730;2023-05-07T02:46:09;10.70;99.90
25983;DHT22;13773;48.868;10.730;2023-05-07T02:48:35;10.70;99.90
25983;DHT22;13773;48.868;10.730;2023-05-07T02:51:01;10.70;99.90
25983;DHT22;13773;48.868;10.730;2023-05-07T02:53:27;11.10;99.90
25983;DHT22;13773;48.868;10.730;2023-05-07T02:55:56;11.30;99.90
25983;DHT22;13773;48.868;10.730;2023-05-07T02:58:22;11.50;99.90
25983;DHT22;13773;48.868;10.730;2023-05-07T03:00:48;11.20;99.90
25983;DHT22;13773;48.868;10.730;2023-05-07T03:03:14;11.00;99.90
25983;DHT22;13773;48.868;10.730;2023-05-07T03:05:40;11.10;99.90
25983;DHT22;13773;48.868;10.730;2023-05-07T03:08:07;10.90;99.90
25983;DHT22;13773;48.868;10.730;2023-05-07T03:10:33;10.60;99.90
25983;DHT22;13773;48.868;10.730;2023-05-07T03:12:58;11.00;99.90
25983;DHT22;13773;48.868;10.730;2023-05-07T03:15:24;10.80;99.90
25983;DHT22;13773;48.868;10.730;2023-05-07T03:17:50;11.10;99.90
25983;DHT22;13773;48.868;10.730;2023-05-07T03:20:15;10.80;99.90
25983;DHT22;13773;48.868;10.730;2023-05-07T03:22:41;10.50;99.90
25983;DHT22;13773;48.868;10.730;2023-05-07T03:25:09;10.40;99.90
25983;DHT22;13773;48.868;10.730;2023-05-07T03:27:35;10.10;99.90
25983;DHT22;13773;48.868;10.730;2023-05-07T03:30:01;9.90;99.90
25983;DHT22;13773;48.868;10.730;2023-05-07T03:32:27;9.80;99.90
25983;DHT22;13773;48.868;10.730;2023-05-07T03:34:52;9.70;99.90
25983;DHT22;13773;48.868;10.730;2023-05-07T03:37:18;9.60;99.90
25983;DHT22;13773;48.868;10.730;2023-05-07T03:39:44;9.50;99.90
25983;DHT22;13773;48.868;10.730;2023-05-07T03:42:10;9.40;99.90
25983;DHT22;13773;48.868;10.730;2023-05-07T03:44:36;9.30;99.90
25983;DHT22;13773;48.868;10.730;2023-05-07T03:47:02;9.30;99.90
25983;DHT22;13773;48.868;10.730;2023-05-07T03:49:28;9.20;99.90
25983;DHT22;13773;48.868;10.730;2023-05-07T03:51:54;9.30;99.90
25983;DHT22;13773;48.868;10.730;2023-05-07T03:54:20;9.30;99.90
25983;DHT22;13773;48.868;10.730;2023-05-07T03:56:45;9.20;99.90
25983;DHT22;13773;48.868;10.730;2023-05-07T03:59:12;9.20;99.90
25983;DHT22;13773;48.868;10.730;2023-05-07T04:01:38;9.20;99.90
25983;DHT22;13773;48.868;10.730;2023-05-07T04:04:04;7.20;99.90
25983;DHT22;13773;48.868;10.730;2023-05-07T04:06:30;9.20;99.90
25983;DHT22;13773;48.868;10.730;2023-05-07T04:08:56;9.30;99.90
25983;DHT22;13773;48.868;10.730;2023-05-07T04:11:22;9.60;99.90
25983;DHT22;13773;48.868;10.730;2023-05-07T04:13:48;9.60;99.90
25983;DHT22;13773;48.868;10.730;2023-05-07T04:16:13;10.00;99.90
25983;DHT22;13773;48.868;10.730;2023-05-07T04:18:39;10.30;99.90
25983;DHT22;13773;48.868;10.730;2023-05-07T04:21:05;10.30;99.90
25983;DHT22;13773;48.868;10.730;2023-05-07T04:23:31;10.50;99.90
25983;DHT22;13773;48.868;10.730;2023-05-07T04:25:56;10.50;99.90
25983;DHT22;13773;48.868;10.730;2023-05-07T04:28:23;10.80;99.90
25983;DHT22;13773;48.868;10.730;2023-05-07T04:30:49;10.90;99.90
25983;DHT22;13773;48.868;10.730;2023-05-07T04:33:15;11.10;99.90
25983;DHT22;13773;48.868;10.730;2023-05-07T04:35:43;11.40;99.90
25983;DHT22;13773;48.868;10.730;2023-05-07T04:38:09;11.60;99.90
25983;DHT22;13773;48.868;10.730;2023-05-07T04:40:36;11.50;99.90
25983;DHT22;13773;48.868;10.730;2023-05-07T04:43:01;11.70;99.90
25983;DHT22;13773;48.868;10.730;2023-05-07T04:45:27;11.70;99.90
25983;DHT22;13773;48.868;10.730;2023-05-07T04:47:53;11.80;99.90
25983;DHT22;13773;48.868;10.730;2023-05-07T04:50:18;12.10;99.90
25983;DHT22;13773;48.868;10.730;2023-05-07T04:52:45;12.10;99.90
25983;DHT22;13773;48.868;10.730;2023-05-07T04:55:11;12.30;99.90
25983;DHT22;13773;48.868;10.730;2023-05-07T04:57:37;12.40;99.90
25983;DHT22;13773;48.868;10.730;2023-05-07T05:00:05;12.50;99.90
25983;DHT22;13773;48.868;10.730;2023-05-07T05:02:33;12.70;99.90
25983;DHT22;13773;48.868;10.730;2023-05-07T05:04:59;12.80;99.90
25983;DHT22;13773;48.868;10.730;2023-05-07T05:07:25;12.70;99.90
25983;DHT22;13773;48.868;10.730;2023-05-07T05:09:50;12.70;99.90
25983;DHT22;13773;48.868;10.730;2023-05-07T05:12:16;12.60;99.90
25983;DHT22;13773;48.868;10.730;2023-05-07T05:14:42;12.60;99.90
25983;DHT22;13773;48.868;10.730;2023-05-07T05:17:08;12.50;99.90
25983;DHT22;13773;48.868;10.730;2023-05-07T05:19:33;12.50;99.90
25983;DHT22;13773;48.868;10.730;2023-05-07T05:21:59;12.90;99.90
25983;DHT22;13773;48.868;10.730;2023-05-07T05:24:26;13.60;99.90
25983;DHT22;13773;48.868;10.730;2023-05-07T05:26:53;14.50;99.90
25983;DHT22;13773;48.868;10.730;2023-05-07T05:29:19;14.90;99.90
25983;DHT22;13773;48.868;10.730;2023-05-07T05:31:45;15.10;99.90
25983;DHT22;13773;48.868;10.730;2023-05-07T05:34:11;15.60;99.90
25983;DHT22;13773;48.868;10.730;2023-05-07T05:36:36;15.70;99.90
25983;DHT22;13773;48.868;10.730;2023-05-07T05:39:02;15.90;99.90
25983;DHT22;13773;48.868;10.730;2023-05-07T05:41:28;16.10;99.90
25983;DHT22;13773;48.868;10.730;2023-05-07T05:43:53;16.90;99.90
25983;DHT22;13773;48.868;10.730;2023-05-07T05:46:19;17.60;99.90
25983;DHT22;13773;48.868;10.730;2023-05-07T05:48:45;17.70;99.90
25983;DHT22;13773;48.868;10.730;2023-05-07T05:51:10;18.00;99.90
25983;DHT22;13773;48.868;10.730;2023-05-07T05:53:36;17.60;99.90
25983;DHT22;13773;48.868;10.730;2023-05-07T05:56:02;17.50;99.90
25983;DHT22;13773;48.868;10.730;2023-05-07T05:58:28;17.10;99.90
25983;DHT22;13773;48.868;10.730;2023-05-07T06:00:54;16.90;99.90
25983;DHT22;13773;48.868;10.730;2023-05-07T06:03:19;16.60;99.90
25983;DHT22;13773;48.868;10.730;2023-05-07T06:05:45;15.80;99.90
25983;DHT22;13773;48.868;10.730;2023-05-07T06:08:11;16.10;99.90
25983;DHT22;13773;48.868;10.730;2023-05-07T06:10:37;16.50;99.90
25983;DHT22;13773;48.868;10.730;2023-05-07T06:13:03;17.00;99.90
25983;DHT22;13773;48.868;10.730;2023-05-07T06:15:29;17.40;99.90
25983;DHT22;13773;48.868;10.730;2023-05-07T06:17:55;17.60;99.90
25983;DHT22;13773;48.868;10.730;2023-05-07T06:20:23;17.80;99.90
25983;DHT22;13773;48.868;10.730;2023-05-07T06:22:48;17.80;99.90
25983;DHT22;13773;48.868;10.730;2023-05-07T06:25:14;17.40;99.90
25983;DHT22;13773;48.868;10.730;2023-05-07T06:27:40;17.00;99.90
25983;DHT22;13773;48.868;10.730;2023-05-07T06:30:06;17.30;99.90
25983;DHT22;13773;48.868;10.730;2023-05-07T06:32:32;17.20;99.90
25983;DHT22;13773;48.868;10.730;2023-05-07T06:34:58;17.20;99.90
25983;DHT22;13773;48.868;10.730;2023-05-07T06:37:24;18.00;99.90
25983;DHT22;13773;48.868;10.730;2023-05-07T06:39:50;18.60;99.90
25983;DHT22;13773;48.868;10.730;2023-05-07T06:42:15;19.30;99.90
25983;DHT22;13773;48.868;10.730;2023-05-07T06:44:41;19.90;99.90
25983;DHT22;13773;48.868;10.730;2023-05-07T06:47:07;19.60;99.90
25983;DHT22;13773;48.868;10.730;2023-05-07T06:49:32;19.70;99.90
25983;DHT22;13773;48.868;10.730;2023-05-07T06:51:58;19.50;99.90
25983;DHT22;13773;48.868;10.730;2023-05-07T06:54:24;19.50;99.90
25983;DHT22;13773;48.868;10.730;2023-05-07T06:56:50;20.30;99.90
25983;DHT22;13773;48.868;10.730;2023-05-07T06:59:15;20.70;99.90
25983;DHT22;13773;48.868;10.730;2023-05-07T07:01:41;20.40;99.90
25983;DHT22;13773;48.868;10.730;2023-05-07T07:04:07;20.30;99.90
25983;DHT22;13773;48.868;10.730;2023-05-07T07:06:34;21.00;99.90
25983;DHT22;13773;48.868;10.730;2023-05-07T07:09:00;21.30;99.90
25983;DHT22;13773;48.868;10.730;2023-05-07T07:11:25;21.20;99.90
25983;DHT22;13773;48.868;10.730;2023-05-07T07:13:52;19.40;99.90
25983;DHT22;13773;48.868;10.730;2023-05-07T07:16:20;19.80;99.90
25983;DHT22;13773;48.868;10.730;2023-05-07T07:18:46;20.20;99.90
25983;DHT22;13773;48.868;10.730;2023-05-07T07:21:11;19.80;99.90
25983;DHT22;13773;48.868;10.730;2023-05-07T07:23:37;20.10;99.90
25983;DHT22;13773;48.868;10.730;2023-05-07T07:26:03;19.90;99.90
25983;DHT22;13773;48.868;10.730;2023-05-07T07:28:28;19.90;99.90
25983;DHT22;13773;48.868;10.730;2023-05-07T07:30:54;19.90;99.90
25983;DHT22;13773;48.868;10.730;2023-05-07T07:33:20;19.50;99.90
25983;DHT22;13773;48.868;10.730;2023-05-07T07:35:46;19.70;99.90
25983;DHT22;13773;48.868;10.730;2023-05-07T07:38:11;20.00;99.90
25983;DHT22;13773;48.868;10.730;2023-05-07T07:40:37;20.40;99.90
25983;DHT22;13773;48.868;10.730;2023-05-07T07:43:03;20.50;99.90
25983;DHT22;13773;48.868;10.730;2023-05-07T07:45:28;20.50;99.90
25983;DHT22;13773;48.868;10.730;2023-05-07T07:47:54;19.70;99.90
25983;DHT22;13773;48.868;10.730;2023-05-07T07:50:20;20.20;99.90
25983;DHT22;13773;48.868;10.730;2023-05-07T07:52:46;20.30;99.90
25983;DHT22;13773;48.868;10.730;2023-05-07T07:55:12;20.30;99.90
25983;DHT22;13773;48.868;10.730;2023-05-07T07:57:37;20.70;99.90
25983;DHT22;13773;48.868;10.730;2023-05-07T08:00:04;20.50;99.90
25983;DHT22;13773;48.868;10.730;2023-05-07T08:02:31;20.30;99.90
25983;DHT22;13773;48.868;10.730;2023-05-07T08:04:57;20.40;99.90
25983;DHT22;13773;48.868;10.730;2023-05-07T08:07:22;20.70;99.90
25983;DHT22;13773;48.868;10.730;2023-05-07T08:09:48;20.90;99.90
25983;DHT22;13773;48.868;10.730;2023-05-07T08:12:14;19.90;99.90
25983;DHT22;13773;48.868;10.730;2023-05-07T08:14:40;20.30;99.90
25983;DHT22;13773;48.868;10.730;2023-05-07T08:17:06;19.70;99.90
25983;DHT22;13773;48.868;10.730;2023-05-07T08:19:32;20.30;99.90
25983;DHT22;13773;48.868;10.730;2023-05-07T08:21:58;20.00;99.90
25983;DHT22;13773;48.868;10.730;2023-05-07T08:24:23;19.50;99.90
25983;DHT22;13773;48.868;10.730;2023-05-07T08:26:49;19.30;99.90
25983;DHT22;13773;48.868;10.730;2023-05-07T08:29:15;18.70;99.90
25983;DHT22;13773;48.868;10.730;2023-05-07T08:31:41;18.90;99.90
25983;DHT22;13773;48.868;10.730;2023-05-07T08:34:07;19.20;99.90
25983;DHT22;13773;48.868;10.730;2023-05-07T08:36:33;19.60;99.90
25983;DHT22;13773;48.868;10.730;2023-05-07T08:38:59;20.10;99.90
25983;DHT22;13773;48.868;10.730;2023-05-07T08:41:25;20.30;99.90
25983;DHT22;13773;48.868;10.730;2023-05-07T08:43:51;20.60;99.90
25983;DHT22;13773;48.868;10.730;2023-05-07T08:46:19;20.70;99.90
25983;DHT22;13773;48.868;10.730;2023-05-07T08:48:47;20.50;99.90
25983;DHT22;13773;48.868;10.730;2023-05-07T08:51:15;20.70;99.90
25983;DHT22;13773;48.868;10.730;2023-05-07T08:53:41;21.00;99.90
25983;DHT22;13773;48.868;10.730;2023-05-07T08:56:09;20.80;99.90
25983;DHT22;13773;48.868;10.730;2023-05-07T08:58:35;20.90;99.90
25983;DHT22;13773;48.868;10.730;2023-05-07T09:01:09;21.10;99.90
25983;DHT22;13773;48.868;10.730;2023-05-07T09:03:36;21.00;99.90
25983;DHT22;13773;48.868;10.730;2023-05-07T09:06:02;21.00;99.90
25983;DHT22;13773;48.868;10.730;2023-05-07T09:08:28;20.90;99.90
25983;DHT22;13773;48.868;10.730;2023-05-07T09:10:54;20.70;99.90
25983;DHT22;13773;48.868;10.730;2023-05-07T09:13:20;20.50;99.90
25983;DHT22;13773;48.868;10.730;2023-05-07T09:15:46;20.60;99.90
25983;DHT22;13773;48.868;10.730;2023-05-07T09:18:14;20.70;99.90
25983;DHT22;13773;48.868;10.730;2023-05-07T09:20:40;20.70;99.90
25983;DHT22;13773;48.868;10.730;2023-05-07T09:23:07;20.60;99.90
25983;DHT22;13773;48.868;10.730;2023-05-07T09:25:34;20.60;99.90
25983;DHT22;13773;48.868;10.730;2023-05-07T09:28:01;20.70;99.90
25983;DHT22;13773;48.868;10.730;2023-05-07T09:30:31;20.90;99.90
25983;DHT22;13773;48.868;10.730;2023-05-07T09:32:58;21.10;99.90
25983;DHT22;13773;48.868;10.730;2023-05-07T09:35:25;21.00;99.90
25983;DHT22;13773;48.868;10.730;2023-05-07T09:37:56;21.10;99.90
25983;DHT22;13773;48.868;10.730;2023-05-07T09:40:30;21.20;99.90
25983;DHT22;13773;48.868;10.730;2023-05-07T09:42:56;21.40;99.90
25983;DHT22;13773;48.868;10.730;2023-05-07T09:45:31;21.70;99.90
25983;DHT22;13773;48.868;10.730;2023-05-07T09:47:58;22.40;99.90
25983;DHT22;13773;48.868;10.730;2023-05-07T09:50:29;22.60;99.90
25983;DHT22;13773;48.868;10.730;2023-05-07T09:52:56;23.00;99.90
25983;DHT22;13773;48.868;10.730;2023-05-07T09:55:22;23.00;99.90
25983;DHT22;13773;48.868;10.730;2023-05-07T09:57:51;23.20;99.90
25983;DHT22;13773;48.868;10.730;2023-05-07T10:00:19;23.00;99.90
25983;DHT22;13773;48.868;10.730;2023-05-07T10:02:48;22.70;99.90
25983;DHT22;13773;48.868;10.730;2023-05-07T10:05:15;22.50;99.90
25983;DHT22;13773;48.868;10.730;2023-05-07T10:07:41;22.00;99.90
25983;DHT22;13773;48.868;10.730;2023-05-07T10:10:07;21.60;99.90
25983;DHT22;13773;48.868;10.730;2023-05-07T10:12:33;21.50;99.90
25983;DHT22;13773;48.868;10.730;2023-05-07T10:15:10;20.90;99.90
25983;DHT22;13773;48.868;10.730;2023-05-07T10:17:37;21.30;99.90
25983;DHT22;13773;48.868;10.730;2023-05-07T10:20:04;21.30;99.90
25983;DHT22;13773;48.868;10.730;2023-05-07T10:22:37;21.40;99.90
25983;DHT22;13773;48.868;10.730;2023-05-07T10:25:09;21.80;99.90
25983;DHT22;13773;48.868;10.730;2023-05-07T10:27:40;20.70;99.90
25983;DHT22;13773;48.868;10.730;2023-05-07T10:30:36;21.00;99.90
25983;DHT22;13773;48.868;10.730;2023-05-07T10:33:05;21.50;99.90
25983;DHT22;13773;48.868;10.730;2023-05-07T10:35:38;21.90;99.90
25983;DHT22;13773;48.868;10.730;2023-05-07T10:38:06;22.30;99.90
25983;DHT22;13773;48.868;10.730;2023-05-07T10:40:32;22.50;99.90
25983;DHT22;13773;48.868;10.730;2023-05-07T10:43:03;22.40;99.90
25983;DHT22;13773;48.868;10.730;2023-05-07T10:45:32;22.90;99.90
25983;DHT22;13773;48.868;10.730;2023-05-07T10:50:35;23.20;99.90
25983;DHT22;13773;48.868;10.730;2023-05-07T10:53:25;23.40;99.90
25983;DHT22;13773;48.868;10.730;2023-05-07T10:58:44;22.40;99.90
25983;DHT22;13773;48.868;10.730;2023-05-07T11:01:09;22.70;99.90
25983;DHT22;13773;48.868;10.730;2023-05-07T11:04:16;23.10;99.90
25983;DHT22;13773;48.868;10.730;2023-05-07T11:12:18;23.90;99.90
25983;DHT22;13773;48.868;10.730;2023-05-07T11:15:12;23.80;99.90
25983;DHT22;13773;48.868;10.730;2023-05-07T11:17:59;24.00;99.90
25983;DHT22;13773;48.868;10.730;2023-05-07T11:26:07;22.70;99.90
25983;DHT22;13773;48.868;10.730;2023-05-07T11:28:41;22.40;99.90
25983;DHT22;13773;48.868;10.730;2023-05-07T11:31:07;23.40;99.90
25983;DHT22;13773;48.868;10.730;2023-05-07T11:33:34;23.90;99.90
25983;DHT22;13773;48.868;10.730;2023-05-07T11:36:02;22.90;99.90
25983;DHT22;13773;48.868;10.730;2023-05-07T11:38:35;22.80;99.90
25983;DHT22;13773;48.868;10.730;2023-05-07T11:41:01;23.50;99.90
25983;DHT22;13773;48.868;10.730;2023-05-07T11:43:28;24.00;99.90
25983;DHT22;13773;48.868;10.730;2023-05-07T11:45:54;22.40;99.90
25983;DHT22;13773;48.868;10.730;2023-05-07T11:48:21;22.00;99.90
25983;DHT22;13773;48.868;10.730;2023-05-07T11:51:00;22.20;99.90
25983;DHT22;13773;48.868;10.730;2023-05-07T11:53:33;22.80;99.90
25983;DHT22;13773;48.868;10.730;2023-05-07T11:56:00;23.90;99.90
25983;DHT22;13773;48.868;10.730;2023-05-07T11:58:26;24.00;99.90
25983;DHT22;13773;48.868;10.730;2023-05-07T12:00:53;24.10;99.90
25983;DHT22;13773;48.868;10.730;2023-05-07T12:03:19;24.00;99.90
25983;DHT22;13773;48.868;10.730;2023-05-07T12:05:45;24.60;99.90
25983;DHT22;13773;48.868;10.730;2023-05-07T12:08:19;24.80;99.90
25983;DHT22;13773;48.868;10.730;2023-05-07T12:10:49;25.00;99.90
25983;DHT22;13773;48.868;10.730;2023-05-07T12:13:16;23.20;99.90
25983;DHT22;13773;48.868;10.730;2023-05-07T12:15:42;23.80;99.90
25983;DHT22;13773;48.868;10.730;2023-05-07T12:18:09;24.10;99.90
25983;DHT22;13773;48.868;10.730;2023-05-07T12:20:36;24.50;99.90
25983;DHT22;13773;48.868;10.730;2023-05-07T12:23:02;23.80;99.90
25983;DHT22;13773;48.868;10.730;2023-05-07T12:25:38;23.50;99.90
25983;DHT22;13773;48.868;10.730;2023-05-07T12:28:04;23.30;99.90
25983;DHT22;13773;48.868;10.730;2023-05-07T12:30:39;24.10;99.90
25983;DHT22;13773;48.868;10.730;2023-05-07T12:33:05;24.50;99.90
25983;DHT22;13773;48.868;10.730;2023-05-07T12:35:36;25.00;99.90
25983;DHT22;13773;48.868;10.730;2023-05-07T12:38:02;24.60;99.90
25983;DHT22;13773;48.868;10.730;2023-05-07T12:40:44;24.70;99.90
25983;DHT22;13773;48.868;10.730;2023-05-07T12:43:28;25.00;99.90
25983;DHT22;13773;48.868;10.730;2023-05-07T12:45:56;24.90;99.90
25983;DHT22;13773;48.868;10.730;2023-05-07T12:48:23;25.00;99.70
25983;DHT22;13773;48.868;10.730;2023-05-07T12:50:53;25.40;99.90
25983;DHT22;13773;48.868;10.730;2023-05-07T12:53:22;25.30;99.90
25983;DHT22;13773;48.868;10.730;2023-05-07T12:55:50;25.30;99.90
25983;DHT22;13773;48.868;10.730;2023-05-07T12:58:20;25.40;99.60
25983;DHT22;13773;48.868;10.730;2023-05-07T13:00:50;25.50;99.60
25983;DHT22;13773;48.868;10.730;2023-05-07T13:03:27;25.20;99.90
25983;DHT22;13773;48.868;10.730;2023-05-07T13:05:53;25.10;99.90
25983;DHT22;13773;48.868;10.730;2023-05-07T13:08:30;24.60;99.90
25983;DHT22;13773;48.868;10.730;2023-05-07T13:10:58;23.60;99.90
25983;DHT22;13773;48.868;10.730;2023-05-07T13:13:25;23.90;99.90
25983;DHT22;13773;48.868;10.730;2023-05-07T13:15:51;24.30;99.70
25983;DHT22;13773;48.868;10.730;2023-05-07T13:18:17;24.30;99.90
25983;DHT22;13773;48.868;10.730;2023-05-07T13:20:43;23.40;99.80
25983;DHT22;13773;48.868;10.730;2023-05-07T13:23:08;24.10;99.90
25983;DHT22;13773;48.868;10.730;2023-05-07T13:25:34;24.90;99.80
25983;DHT22;13773;48.868;10.730;2023-05-07T13:28:00;24.50;99.00
25983;DHT22;13773;48.868;10.730;2023-05-07T13:30:26;22.50;99.90
25983;DHT22;13773;48.868;10.730;2023-05-07T13:32:55;22.60;99.90
25983;DHT22;13773;48.868;10.730;2023-05-07T13:35:21;23.00;99.90
25983;DHT22;13773;48.868;10.730;2023-05-07T13:37:47;22.90;99.90
25983;DHT22;13773;48.868;10.730;2023-05-07T13:40:17;23.00;99.90
25983;DHT22;13773;48.868;10.730;2023-05-07T13:42:44;22.70;99.90
25983;DHT22;13773;48.868;10.730;2023-05-07T13:45:09;22.60;99.90
25983;DHT22;13773;48.868;10.730;2023-05-07T13:47:35;25.30;99.90
25983;DHT22;13773;48.868;10.730;2023-05-07T13:50:01;22.30;99.90
25983;DHT22;13773;48.868;10.730;2023-05-07T13:52:26;22.70;99.90
25983;DHT22;13773;48.868;10.730;2023-05-07T13:54:52;22.90;99.90
25983;DHT22;13773;48.868;10.730;2023-05-07T13:57:18;22.50;99.90
25983;DHT22;13773;48.868;10.730;2023-05-07T13:59:44;22.30;99.90
25983;DHT22;13773;48.868;10.730;2023-05-07T14:02:09;22.50;99.90
25983;DHT22;13773;48.868;10.730;2023-05-07T14:04:36;22.70;99.90
25983;DHT22;13773;48.868;10.730;2023-05-07T14:07:03;22.20;99.90
25983;DHT22;13773;48.868;10.730;2023-05-07T14:09:28;22.00;99.90
25983;DHT22;13773;48.868;10.730;2023-05-07T14:11:54;21.70;99.90
25983;DHT22;13773;48.868;10.730;2023-05-07T14:14:20;21.80;99.90
25983;DHT22;13773;48.868;10.730;2023-05-07T14:16:46;22.20;99.90
25983;DHT22;13773;48.868;10.730;2023-05-07T14:19:12;22.20;99.90
25983;DHT22;13773;48.868;10.730;2023-05-07T14:21:38;22.50;99.90
25983;DHT22;13773;48.868;10.730;2023-05-07T14:24:06;22.30;99.90
25983;DHT22;13773;48.868;10.730;2023-05-07T14:26:33;22.60;99.90
25983;DHT22;13773;48.868;10.730;2023-05-07T14:28:58;22.10;99.90
25983;DHT22;13773;48.868;10.730;2023-05-07T14:31:24;22.10;99.90
25983;DHT22;13773;48.868;10.730;2023-05-07T14:33:50;22.50;99.90
25983;DHT22;13773;48.868;10.730;2023-05-07T14:36:17;23.00;99.90
25983;DHT22;13773;48.868;10.730;2023-05-07T14:38:46;23.40;99.90
25983;DHT22;13773;48.868;10.730;2023-05-07T14:41:11;23.20;99.90
25983;DHT22;13773;48.868;10.730;2023-05-07T14:43:37;22.90;99.90
25983;DHT22;13773;48.868;10.730;2023-05-07T14:46:03;23.10;99.90
25983;DHT22;13773;48.868;10.730;2023-05-07T14:48:29;23.20;99.90
25983;DHT22;13773;48.868;10.730;2023-05-07T14:50:54;23.20;99.90
25983;DHT22;13773;48.868;10.730;2023-05-07T14:53:20;23.10;99.90
25983;DHT22;13773;48.868;10.730;2023-05-07T14:55:48;23.50;99.90
25983;DHT22;13773;48.868;10.730;2023-05-07T14:58:13;22.70;99.90
25983;DHT22;13773;48.868;10.730;2023-05-07T15:00:39;23.20;99.90
25983;DHT22;13773;48.868;10.730;2023-05-07T15:03:09;23.30;99.90
25983;DHT22;13773;48.868;10.730;2023-05-07T15:05:36;22.80;99.90
25983;DHT22;13773;48.868;10.730;2023-05-07T15:08:02;23.00;99.90
25983;DHT22;13773;48.868;10.730;2023-05-07T15:10:28;22.90;99.90
25983;DHT22;13773;48.868;10.730;2023-05-07T15:12:54;22.70;99.90
25983;DHT22;13773;48.868;10.730;2023-05-07T15:15:19;22.60;99.90
25983;DHT22;13773;48.868;10.730;2023-05-07T15:17:45;22.60;99.90
25983;DHT22;13773;48.868;10.730;2023-05-07T15:20:11;22.90;99.90
25983;DHT22;13773;48.868;10.730;2023-05-07T15:22:37;23.40;99.90
25983;DHT22;13773;48.868;10.730;2023-05-07T15:25:05;22.70;99.90
25983;DHT22;13773;48.868;10.730;2023-05-07T15:27:31;22.60;99.90
25983;DHT22;13773;48.868;10.730;2023-05-07T15:29:57;22.80;99.90
25983;DHT22;13773;48.868;10.730;2023-05-07T15:32:23;22.60;99.90